createdAt,value
2017-09-21T00:00:41.975Z,21.47
2017-09-21T00:01:51.651Z,21.47
2017-09-21T00:03:01.267Z,21.42
2017-09-21T00:04:09.926Z,21.43
2017-09-21T00:05:19.552Z,21.44
2017-09-21T00:06:28.532Z,21.46
2017-09-21T00:07:37.532Z,21.43
2017-09-21T00:08:47.138Z,21.43
2017-09-21T00:09:56.421Z,21.49
2017-09-21T00:11:05.392Z,21.4
2017-09-21T00:12:14.996Z,21.5
2017-09-21T00:13:23.994Z,21.42
2017-09-21T00:14:33.921Z,21.43
2017-09-21T00:15:42.912Z,21.4
2017-09-21T00:16:52.199Z,21.46
2017-09-21T00:18:01.181Z,21.37
2017-09-21T00:19:10.482Z,21.43
2017-09-21T00:20:19.834Z,21.47
2017-09-21T00:21:28.493Z,21.47
2017-09-21T00:22:38.110Z,21.42
2017-09-21T00:23:46.784Z,21.46
2017-09-21T00:24:56.389Z,21.43
2017-09-21T00:26:05.370Z,21.43
2017-09-21T00:27:14.691Z,21.43
2017-09-21T00:28:23.990Z,21.47
2017-09-21T00:29:33.021Z,21.43
2017-09-21T00:30:42.314Z,21.42
2017-09-21T00:31:51.276Z,21.46
2017-09-21T00:33:00.557Z,21.43
2017-09-21T00:34:09.218Z,21.37
2017-09-21T00:35:17.860Z,21.47
2017-09-21T00:36:26.840Z,21.44
2017-09-21T00:37:35.848Z,21.5
2017-09-21T00:38:45.177Z,21.46
2017-09-21T00:39:55.112Z,21.46
2017-09-21T00:41:04.743Z,21.43
2017-09-21T00:42:13.725Z,21.42
2017-09-21T00:43:23.016Z,21.49
2017-09-21T00:44:32.645Z,21.38
2017-09-21T00:45:41.939Z,21.44
2017-09-21T00:46:50.596Z,21.46
2017-09-21T00:47:59.574Z,21.34
2017-09-21T00:49:08.879Z,21.46
2017-09-21T00:50:17.863Z,21.44
2017-09-21T00:51:27.164Z,21.38
2017-09-21T00:52:36.493Z,21.4
2017-09-21T00:53:46.107Z,21.34
2017-09-21T00:54:55.075Z,21.42
2017-09-21T00:56:04.057Z,21.42
2017-09-21T00:57:13.036Z,21.43
2017-09-21T00:58:22.013Z,21.42
2017-09-21T00:59:30.989Z,21.4
2017-09-21T01:00:39.668Z,21.47
2017-09-21T01:01:48.955Z,21.34
2017-09-21T01:02:58.587Z,21.4
2017-09-21T01:04:07.882Z,21.42
2017-09-21T01:05:17.195Z,21.44
2017-09-21T01:06:26.484Z,21.47
2017-09-21T01:07:35.460Z,21.34
2017-09-21T01:08:44.445Z,21.4
2017-09-21T01:09:53.427Z,21.44
2017-09-21T01:11:02.426Z,21.34
2017-09-21T01:12:11.096Z,21.42
2017-09-21T01:13:20.431Z,21.37
2017-09-21T01:14:29.407Z,21.4
2017-09-21T01:15:39.018Z,21.32
2017-09-21T01:16:47.746Z,21.4
2017-09-21T01:17:56.422Z,21.42
2017-09-21T01:19:05.721Z,21.31
2017-09-21T01:20:15.014Z,21.4
2017-09-21T01:21:24.003Z,21.31
2017-09-21T01:22:33.630Z,21.32
2017-09-21T01:23:42.302Z,21.37
2017-09-21T01:24:50.954Z,21.4
2017-09-21T01:25:59.951Z,21.34
2017-09-21T01:27:09.553Z,21.44
2017-09-21T01:28:18.525Z,21.4
2017-09-21T01:29:27.553Z,21.38
2017-09-21T01:30:36.851Z,21.34
2017-09-21T01:31:45.812Z,21.37
2017-09-21T01:32:55.104Z,21.37
2017-09-21T01:34:03.778Z,21.35
2017-09-21T01:35:13.069Z,21.4
2017-09-21T01:36:22.364Z,21.34
2017-09-21T01:37:31.653Z,21.37
2017-09-21T01:38:40.944Z,21.37
2017-09-21T01:39:49.931Z,21.34
2017-09-21T01:40:58.913Z,21.38
2017-09-21T01:42:07.586Z,21.34
2017-09-21T01:43:16.885Z,21.4
2017-09-21T01:44:25.851Z,21.35
2017-09-21T01:45:34.543Z,21.35
2017-09-21T01:46:43.526Z,21.34
2017-09-21T01:47:52.498Z,21.38
2017-09-21T01:49:01.802Z,21.37
2017-09-21T01:50:11.092Z,21.42
2017-09-21T01:51:20.492Z,21.46
2017-09-21T01:52:29.821Z,21.32
2017-09-21T01:53:38.819Z,21.4
2017-09-21T01:54:47.783Z,21.37
2017-09-21T01:55:56.443Z,21.37
2017-09-21T01:57:05.451Z,21.43
2017-09-21T01:58:14.434Z,21.35
2017-09-21T01:59:23.845Z,21.37
2017-09-21T02:00:32.822Z,21.35
2017-09-21T02:01:42.120Z,21.46
2017-09-21T02:02:51.111Z,21.35
2017-09-21T02:04:00.094Z,21.35
2017-09-21T02:05:08.794Z,21.35
2017-09-21T02:06:17.452Z,21.31
2017-09-21T02:07:26.145Z,21.37
2017-09-21T02:08:35.129Z,21.38
2017-09-21T02:09:44.433Z,21.35
2017-09-21T02:10:53.735Z,21.43
2017-09-21T02:12:03.104Z,21.4
2017-09-21T02:13:11.766Z,21.32
2017-09-21T02:14:20.755Z,21.35
2017-09-21T02:15:30.030Z,21.42
2017-09-21T02:16:39.078Z,21.34
2017-09-21T02:17:47.733Z,21.31
2017-09-21T02:18:56.396Z,21.34
2017-09-21T02:20:05.365Z,21.28
2017-09-21T02:21:14.342Z,21.38
2017-09-21T02:22:23.702Z,21.37
2017-09-21T02:23:32.983Z,21.34
2017-09-21T02:24:41.977Z,21.37
2017-09-21T02:25:50.961Z,21.31
2017-09-21T02:26:59.625Z,21.38
2017-09-21T02:28:09.254Z,21.35
2017-09-21T02:29:18.262Z,21.37
2017-09-21T02:30:27.555Z,21.4
2017-09-21T02:31:36.242Z,21.37
2017-09-21T02:32:45.238Z,21.31
2017-09-21T02:33:54.220Z,21.4
2017-09-21T02:35:02.883Z,21.35
2017-09-21T02:36:11.544Z,21.32
2017-09-21T02:37:21.165Z,21.37
2017-09-21T02:38:29.836Z,21.4
2017-09-21T02:39:38.811Z,21.38
2017-09-21T02:40:47.820Z,21.32
2017-09-21T02:41:56.802Z,21.38
2017-09-21T02:43:05.780Z,21.35
2017-09-21T02:44:14.766Z,21.31
2017-09-21T02:45:23.762Z,21.29
2017-09-21T02:46:32.734Z,21.37
2017-09-21T02:47:42.362Z,21.38
2017-09-21T02:48:51.051Z,21.31
2017-09-21T02:50:00.654Z,21.31
2017-09-21T02:51:09.753Z,21.25
2017-09-21T02:52:19.047Z,21.28
2017-09-21T02:53:28.072Z,21.32
2017-09-21T02:54:36.756Z,21.31
2017-09-21T02:55:45.415Z,21.28
2017-09-21T02:56:54.710Z,21.29
2017-09-21T02:58:04.005Z,21.28
2017-09-21T02:59:12.665Z,21.32
2017-09-21T03:00:22.020Z,21.34
2017-09-21T03:01:31.006Z,21.27
2017-09-21T03:02:40.011Z,21.29
2017-09-21T03:03:49.318Z,21.32
2017-09-21T03:04:58.937Z,21.35
2017-09-21T03:06:07.607Z,21.31
2017-09-21T03:07:16.273Z,21.28
2017-09-21T03:08:25.567Z,21.29
2017-09-21T03:09:34.861Z,21.29
2017-09-21T03:10:44.188Z,21.29
2017-09-21T03:11:52.888Z,21.28
2017-09-21T03:13:02.164Z,21.31
2017-09-21T03:14:11.147Z,21.28
2017-09-21T03:15:20.814Z,21.25
2017-09-21T03:16:29.796Z,21.29
2017-09-21T03:17:38.473Z,21.31
2017-09-21T03:18:47.159Z,21.28
2017-09-21T03:19:56.169Z,21.31
2017-09-21T03:21:04.827Z,21.31
2017-09-21T03:22:13.511Z,21.29
2017-09-21T03:23:22.806Z,21.28
2017-09-21T03:24:31.471Z,21.29
2017-09-21T03:25:40.517Z,21.31
2017-09-21T03:26:49.507Z,21.34
2017-09-21T03:27:58.500Z,21.25
2017-09-21T03:29:07.497Z,21.29
2017-09-21T03:30:16.172Z,21.32
2017-09-21T03:31:25.151Z,21.32
2017-09-21T03:32:34.437Z,21.29
2017-09-21T03:33:43.100Z,21.29
2017-09-21T03:34:51.753Z,21.32
2017-09-21T03:36:01.037Z,21.34
2017-09-21T03:37:10.638Z,21.28
2017-09-21T03:38:19.611Z,21.24
2017-09-21T03:39:29.212Z,21.22
2017-09-21T03:40:38.819Z,21.27
2017-09-21T03:41:47.498Z,21.22
2017-09-21T03:42:56.832Z,21.28
2017-09-21T03:44:05.804Z,21.28
2017-09-21T03:45:15.127Z,21.24
2017-09-21T03:46:24.449Z,21.22
2017-09-21T03:47:33.107Z,21.29
2017-09-21T03:48:42.408Z,21.22
2017-09-21T03:49:51.465Z,21.24
2017-09-21T03:51:00.443Z,21.25
2017-09-21T03:52:10.057Z,21.22
2017-09-21T03:53:18.723Z,21.19
2017-09-21T03:54:27.375Z,21.25
2017-09-21T03:55:37.012Z,21.25
2017-09-21T03:56:45.689Z,21.24
2017-09-21T03:57:54.981Z,21.22
2017-09-21T03:59:03.651Z,21.24
2017-09-21T04:00:12.624Z,21.27
2017-09-21T04:01:21.935Z,21.27
2017-09-21T04:02:31.532Z,21.25
2017-09-21T04:03:40.521Z,21.19
2017-09-21T04:04:49.816Z,21.28
2017-09-21T04:05:58.804Z,21.29
2017-09-21T04:07:08.104Z,21.27
2017-09-21T04:08:17.412Z,21.28
2017-09-21T04:09:26.757Z,21.24
2017-09-21T04:10:35.738Z,21.27
2017-09-21T04:11:45.028Z,21.24
2017-09-21T04:12:54.042Z,21.31
2017-09-21T04:14:03.341Z,21.24
2017-09-21T04:15:12.021Z,21.21
2017-09-21T04:16:21.049Z,21.21
2017-09-21T04:17:30.359Z,21.24
2017-09-21T04:18:39.660Z,21.25
2017-09-21T04:19:48.380Z,21.19
2017-09-21T04:20:57.044Z,21.28
2017-09-21T04:22:06.070Z,21.24
2017-09-21T04:23:15.363Z,21.21
2017-09-21T04:24:24.402Z,21.24
2017-09-21T04:25:33.375Z,21.28
2017-09-21T04:26:42.116Z,21.21
2017-09-21T04:27:51.412Z,21.27
2017-09-21T04:29:00.066Z,21.21
2017-09-21T04:30:09.371Z,21.24
2017-09-21T04:31:18.684Z,21.27
2017-09-21T04:32:27.352Z,21.21
2017-09-21T04:33:36.341Z,21.27
2017-09-21T04:34:45.340Z,21.24
2017-09-21T04:35:53.974Z,21.19
2017-09-21T04:37:02.957Z,21.22
2017-09-21T04:38:12.261Z,21.17
2017-09-21T04:39:21.556Z,21.22
2017-09-21T04:40:30.908Z,21.27
2017-09-21T04:41:39.596Z,21.22
2017-09-21T04:42:48.625Z,21.25
2017-09-21T04:43:57.278Z,21.28
2017-09-21T04:45:06.602Z,21.24
2017-09-21T04:46:15.567Z,21.25
2017-09-21T04:47:24.588Z,21.27
2017-09-21T04:48:33.569Z,21.25
2017-09-21T04:49:42.902Z,21.27
2017-09-21T04:51:04.360Z,21.21
2017-09-21T04:52:13.668Z,21.27
2017-09-21T04:53:23.251Z,21.24
2017-09-21T04:54:32.239Z,21.19
2017-09-21T04:55:41.849Z,21.24
2017-09-21T04:56:50.502Z,21.25
2017-09-21T04:57:59.156Z,21.25
2017-09-21T04:59:07.983Z,21.24
2017-09-21T05:00:16.966Z,21.22
2017-09-21T05:01:25.959Z,21.19
2017-09-21T05:02:35.879Z,21.22
2017-09-21T05:03:44.540Z,21.24
2017-09-21T05:04:53.193Z,21.25
2017-09-21T05:06:02.236Z,21.25
2017-09-21T05:07:11.543Z,21.13
2017-09-21T05:08:20.826Z,21.22
2017-09-21T05:09:29.809Z,21.14
2017-09-21T05:10:39.210Z,21.17
2017-09-21T05:11:48.204Z,21.22
2017-09-21T05:12:56.861Z,21.14
2017-09-21T05:14:05.831Z,21.13
2017-09-21T05:15:14.485Z,21.21
2017-09-21T05:16:23.498Z,21.27
2017-09-21T05:17:32.464Z,21.22
2017-09-21T05:18:41.473Z,21.24
2017-09-21T05:19:50.509Z,21.17
2017-09-21T05:20:59.609Z,21.19
2017-09-21T05:22:08.571Z,21.27
2017-09-21T05:23:18.181Z,21.21
2017-09-21T05:24:26.957Z,21.24
2017-09-21T05:25:36.875Z,21.22
2017-09-21T05:26:46.189Z,21.22
2017-09-21T05:27:55.070Z,21.25
2017-09-21T05:29:04.074Z,21.29
2017-09-21T05:30:12.721Z,21.35
2017-09-21T05:31:21.703Z,21.31
2017-09-21T05:32:31.044Z,21.31
2017-09-21T05:33:40.112Z,21.29
2017-09-21T05:34:49.110Z,21.34
2017-09-21T05:35:57.776Z,21.35
2017-09-21T05:37:07.399Z,21.35
2017-09-21T05:38:16.062Z,21.4
2017-09-21T05:39:24.901Z,21.38
2017-09-21T05:40:33.884Z,21.31
2017-09-21T05:41:43.169Z,21.4
2017-09-21T05:42:52.199Z,21.4
2017-09-21T05:44:01.196Z,21.4
2017-09-21T05:45:10.083Z,21.44
2017-09-21T05:46:18.861Z,21.43
2017-09-21T05:47:28.276Z,21.46
2017-09-21T05:48:37.249Z,21.47
2017-09-21T05:49:46.841Z,21.49
2017-09-21T05:50:55.849Z,21.53
2017-09-21T05:52:04.500Z,21.5
2017-09-21T05:53:13.789Z,21.56
2017-09-21T05:54:22.872Z,21.5
2017-09-21T05:55:32.182Z,21.58
2017-09-21T05:56:41.489Z,21.56
2017-09-21T05:57:50.441Z,21.59
2017-09-21T05:58:59.418Z,21.58
2017-09-21T06:00:08.164Z,21.5
2017-09-21T06:01:17.772Z,21.53
2017-09-21T06:02:26.893Z,21.4
2017-09-21T06:03:35.544Z,21.49
2017-09-21T06:04:44.578Z,21.49
2017-09-21T06:05:53.547Z,21.37
2017-09-21T06:07:02.214Z,21.34
2017-09-21T06:08:11.325Z,21.43
2017-09-21T06:09:19.985Z,21.5
2017-09-21T06:10:29.334Z,21.47
2017-09-21T06:11:38.118Z,21.4
2017-09-21T06:12:46.812Z,21.44
2017-09-21T06:13:55.930Z,21.43
2017-09-21T06:15:04.923Z,21.47
2017-09-21T06:16:13.636Z,21.4
2017-09-21T06:17:22.657Z,21.4
2017-09-21T06:18:31.308Z,21.4
2017-09-21T06:19:40.262Z,21.4
2017-09-21T06:20:49.244Z,21.46
2017-09-21T06:21:58.216Z,21.49
2017-09-21T06:23:07.524Z,21.42
2017-09-21T06:24:16.484Z,21.47
2017-09-21T06:25:25.449Z,21.44
2017-09-21T06:26:34.136Z,21.44
2017-09-21T06:27:42.793Z,21.53
2017-09-21T06:28:51.459Z,21.49
2017-09-21T06:30:00.760Z,21.52
2017-09-21T06:31:10.169Z,21.54
2017-09-21T06:32:19.456Z,21.56
2017-09-21T06:33:28.528Z,21.54
2017-09-21T06:34:37.524Z,21.52
2017-09-21T06:35:46.232Z,21.56
2017-09-21T06:36:55.377Z,21.52
2017-09-21T06:38:04.400Z,21.54
2017-09-21T06:39:13.372Z,21.54
2017-09-21T06:40:22.099Z,21.53
2017-09-21T06:41:31.394Z,21.58
2017-09-21T06:42:41.023Z,21.58
2017-09-21T06:43:49.728Z,21.53
2017-09-21T06:44:59.051Z,21.59
2017-09-21T06:46:08.337Z,21.64
2017-09-21T06:47:17.306Z,21.62
2017-09-21T06:48:26.923Z,21.62
2017-09-21T06:49:35.902Z,21.62
2017-09-21T06:50:44.578Z,21.62
2017-09-21T06:51:53.221Z,21.67
2017-09-21T06:53:02.244Z,21.62
2017-09-21T06:54:11.263Z,21.64
2017-09-21T06:55:19.920Z,21.62
2017-09-21T06:56:29.866Z,21.68
2017-09-21T06:57:38.841Z,21.62
2017-09-21T06:58:48.452Z,21.64
2017-09-21T06:59:57.747Z,21.62
2017-09-21T07:01:07.049Z,21.67
2017-09-21T07:02:16.025Z,21.65
2017-09-21T07:03:24.683Z,21.64
2017-09-21T07:04:33.687Z,21.67
2017-09-21T07:05:43.450Z,21.67
2017-09-21T07:06:52.462Z,21.68
2017-09-21T07:08:02.076Z,21.71
2017-09-21T07:09:11.057Z,21.69
2017-09-21T07:10:20.041Z,21.65
2017-09-21T07:11:30.267Z,21.74
2017-09-21T07:12:38.986Z,21.79
2017-09-21T07:13:47.690Z,21.72
2017-09-21T07:14:56.984Z,21.72
2017-09-21T07:16:05.944Z,21.8
2017-09-21T07:17:15.220Z,21.67
2017-09-21T07:18:24.188Z,21.69
2017-09-21T07:19:32.845Z,21.74
2017-09-21T07:20:41.821Z,21.74
2017-09-21T07:21:50.493Z,21.71
2017-09-21T07:22:59.471Z,21.71
2017-09-21T07:24:09.103Z,21.75
2017-09-21T07:25:18.108Z,21.77
2017-09-21T07:26:26.883Z,21.67
2017-09-21T07:27:35.536Z,21.74
2017-09-21T07:28:44.989Z,21.74
2017-09-21T07:29:53.674Z,21.77
2017-09-21T07:31:02.647Z,21.67
2017-09-21T07:32:11.940Z,21.72
2017-09-21T07:33:21.543Z,21.75
2017-09-21T07:34:30.663Z,21.71
2017-09-21T07:35:39.331Z,21.72
2017-09-21T07:36:48.298Z,21.75
2017-09-21T07:37:57.296Z,21.75
2017-09-21T07:39:06.610Z,21.72
2017-09-21T07:40:15.601Z,21.72
2017-09-21T07:41:24.928Z,21.74
2017-09-21T07:42:34.000Z,21.79
2017-09-21T07:43:43.097Z,21.71
2017-09-21T07:44:52.420Z,21.77
2017-09-21T07:46:02.079Z,21.74
2017-09-21T07:47:11.083Z,21.8
2017-09-21T07:48:20.371Z,21.75
2017-09-21T07:49:29.368Z,21.72
2017-09-21T07:50:38.023Z,21.8
2017-09-21T07:51:47.177Z,21.79
2017-09-21T07:52:55.828Z,21.83
2017-09-21T07:54:04.820Z,21.8
2017-09-21T07:55:14.117Z,21.82
2017-09-21T07:56:22.797Z,21.8
2017-09-21T07:57:32.700Z,21.8
2017-09-21T07:58:41.405Z,21.75
2017-09-21T07:59:50.705Z,21.79
2017-09-21T08:01:00.076Z,21.8
2017-09-21T08:02:09.077Z,21.82
2017-09-21T08:03:18.500Z,21.8
2017-09-21T08:04:28.421Z,21.77
2017-09-21T08:05:37.385Z,21.9
2017-09-21T08:06:46.372Z,21.75
2017-09-21T08:07:55.022Z,21.79
2017-09-21T08:09:03.799Z,21.83
2017-09-21T08:10:13.094Z,21.79
2017-09-21T08:11:21.781Z,21.8
2017-09-21T08:12:30.438Z,21.8
2017-09-21T08:13:39.772Z,21.79
2017-09-21T08:14:48.428Z,21.75
2017-09-21T08:15:58.090Z,21.8
2017-09-21T08:17:07.085Z,21.86
2017-09-21T08:18:15.737Z,21.83
2017-09-21T08:19:25.349Z,21.84
2017-09-21T08:20:34.118Z,21.82
2017-09-21T08:21:43.098Z,21.82
2017-09-21T08:22:52.079Z,21.86
2017-09-21T08:24:01.056Z,21.82
2017-09-21T08:25:10.028Z,21.79
2017-09-21T08:26:19.004Z,21.74
2017-09-21T08:27:27.987Z,21.84
2017-09-21T08:28:37.292Z,21.74
2017-09-21T08:29:46.603Z,21.86
2017-09-21T08:30:55.926Z,21.84
2017-09-21T08:32:04.631Z,21.69
2017-09-21T08:33:13.944Z,21.83
2017-09-21T08:34:22.932Z,21.84
2017-09-21T08:35:32.225Z,21.84
2017-09-21T08:36:41.208Z,21.9
2017-09-21T08:37:50.362Z,21.8
2017-09-21T08:38:59.373Z,21.74
2017-09-21T08:40:08.335Z,21.71
2017-09-21T08:41:17.333Z,21.75
2017-09-21T08:42:25.998Z,21.82
2017-09-21T08:43:35.660Z,21.82
2017-09-21T08:44:44.601Z,21.79
2017-09-21T08:45:53.255Z,21.86
2017-09-21T08:47:02.590Z,21.84
2017-09-21T08:48:11.902Z,21.77
2017-09-21T08:49:20.726Z,21.71
2017-09-21T08:50:29.715Z,21.9
2017-09-21T08:51:39.014Z,21.74
2017-09-21T08:52:48.313Z,21.72
2017-09-21T08:53:58.013Z,21.84
2017-09-21T08:55:07.168Z,21.94
2017-09-21T08:56:16.765Z,21.9
2017-09-21T08:57:25.745Z,21.9
2017-09-21T08:58:35.109Z,21.86
2017-09-21T08:59:44.084Z,21.84
2017-09-21T09:00:53.239Z,21.92
2017-09-21T09:02:02.571Z,21.9
2017-09-21T09:03:11.562Z,21.8
2017-09-21T09:04:20.850Z,21.92
2017-09-21T09:05:29.845Z,21.8
2017-09-21T09:06:38.866Z,21.91
2017-09-21T09:07:47.850Z,21.82
2017-09-21T09:08:57.143Z,21.82
2017-09-21T09:10:05.801Z,21.86
2017-09-21T09:11:14.477Z,21.8
2017-09-21T09:12:23.749Z,21.9
2017-09-21T09:13:33.044Z,21.92
2017-09-21T09:14:42.034Z,21.86
2017-09-21T09:15:50.700Z,21.91
2017-09-21T09:16:59.679Z,21.86
2017-09-21T09:18:09.293Z,21.92
2017-09-21T09:19:18.624Z,21.8
2017-09-21T09:20:27.949Z,21.84
2017-09-21T09:21:37.251Z,21.94
2017-09-21T09:22:45.912Z,21.92
2017-09-21T09:23:54.721Z,21.9
2017-09-21T09:25:03.721Z,21.88
2017-09-21T09:26:12.708Z,21.96
2017-09-21T09:27:21.681Z,21.92
2017-09-21T09:28:30.666Z,21.82
2017-09-21T09:29:40.126Z,21.9
2017-09-21T09:30:49.111Z,21.91
2017-09-21T09:31:57.821Z,21.92
2017-09-21T09:33:06.487Z,21.88
2017-09-21T09:34:15.779Z,21.98
2017-09-21T09:35:24.760Z,21.91
2017-09-21T09:36:34.055Z,21.98
2017-09-21T09:37:43.040Z,21.84
2017-09-21T09:38:51.705Z,21.94
2017-09-21T09:40:01.059Z,21.92
2017-09-21T09:41:10.381Z,21.98
2017-09-21T09:42:19.372Z,21.83
2017-09-21T09:43:28.032Z,21.96
2017-09-21T09:44:37.022Z,21.88
2017-09-21T09:45:45.698Z,22
2017-09-21T09:46:54.525Z,21.98
2017-09-21T09:48:03.190Z,21.94
2017-09-21T09:49:12.172Z,21.99
2017-09-21T09:50:21.143Z,21.94
2017-09-21T09:51:29.804Z,22
2017-09-21T09:52:39.517Z,21.82
2017-09-21T09:53:48.508Z,21.91
2017-09-21T09:54:57.488Z,21.94
2017-09-21T09:56:06.792Z,21.98
2017-09-21T09:57:16.080Z,22
2017-09-21T09:58:25.678Z,21.94
2017-09-21T09:59:34.982Z,21.98
2017-09-21T10:00:43.635Z,21.86
2017-09-21T10:01:52.625Z,21.99
2017-09-21T10:03:01.946Z,21.96
2017-09-21T10:04:11.557Z,21.94
2017-09-21T10:05:20.528Z,21.94
2017-09-21T10:06:29.539Z,21.94
2017-09-21T10:07:38.824Z,21.96
2017-09-21T10:08:47.821Z,21.99
2017-09-21T10:09:57.276Z,21.84
2017-09-21T10:11:06.331Z,21.86
2017-09-21T10:12:15.614Z,21.82
2017-09-21T10:13:24.929Z,22.02
2017-09-21T10:14:33.931Z,21.86
2017-09-21T10:15:42.765Z,21.96
2017-09-21T10:16:52.070Z,21.94
2017-09-21T10:18:01.363Z,21.98
2017-09-21T10:19:10.332Z,21.94
2017-09-21T10:20:19.323Z,22
2017-09-21T10:21:28.449Z,21.91
2017-09-21T10:22:37.749Z,21.88
2017-09-21T10:23:46.403Z,21.9
2017-09-21T10:24:55.401Z,21.84
2017-09-21T10:26:04.400Z,21.96
2017-09-21T10:27:13.075Z,21.99
2017-09-21T10:28:21.737Z,21.94
2017-09-21T10:29:31.364Z,21.84
2017-09-21T10:30:40.695Z,21.96
2017-09-21T10:31:49.691Z,21.84
2017-09-21T10:32:58.675Z,21.94
2017-09-21T10:34:08.284Z,21.99
2017-09-21T10:35:17.569Z,21.83
2017-09-21T10:36:26.545Z,21.99
2017-09-21T10:37:35.525Z,21.83
2017-09-21T10:38:44.503Z,22.03
2017-09-21T10:39:53.783Z,21.99
2017-09-21T10:41:02.444Z,21.99
2017-09-21T10:42:11.119Z,21.94
2017-09-21T10:43:20.714Z,21.96
2017-09-21T10:44:30.345Z,22
2017-09-21T10:45:39.000Z,22.03
2017-09-21T10:46:47.975Z,22
2017-09-21T10:47:57.268Z,22.02
2017-09-21T10:49:06.566Z,21.99
2017-09-21T10:50:15.999Z,21.91
2017-09-21T10:51:24.992Z,21.91
2017-09-21T10:52:34.926Z,21.94
2017-09-21T10:53:43.924Z,21.9
2017-09-21T10:54:52.669Z,21.9
2017-09-21T10:56:02.102Z,21.94
2017-09-21T10:57:11.068Z,21.98
2017-09-21T10:58:21.005Z,21.96
2017-09-21T10:59:29.694Z,21.96
2017-09-21T11:00:38.362Z,21.96
2017-09-21T11:01:47.824Z,22.03
2017-09-21T11:02:56.808Z,21.88
2017-09-21T11:04:05.781Z,22.02
2017-09-21T11:05:15.382Z,21.99
2017-09-21T11:06:25.303Z,22
2017-09-21T11:07:34.067Z,21.98
2017-09-21T11:08:43.053Z,21.99
2017-09-21T11:09:52.659Z,21.99
2017-09-21T11:11:01.953Z,21.96
2017-09-21T11:12:11.241Z,21.98
2017-09-21T11:13:20.377Z,22.05
2017-09-21T11:14:29.995Z,22
2017-09-21T11:15:38.984Z,22
2017-09-21T11:16:48.582Z,22.03
2017-09-21T11:17:57.561Z,22.03
2017-09-21T11:19:06.536Z,22.03
2017-09-21T11:20:15.506Z,21.96
2017-09-21T11:21:24.504Z,21.98
2017-09-21T11:22:33.156Z,21.99
2017-09-21T11:23:41.823Z,21.94
2017-09-21T11:24:50.803Z,21.98
2017-09-21T11:26:00.114Z,22
2017-09-21T11:27:08.773Z,22.03
2017-09-21T11:28:17.439Z,21.94
2017-09-21T11:29:26.426Z,21.94
2017-09-21T11:30:35.877Z,21.96
2017-09-21T11:31:45.161Z,21.99
2017-09-21T11:32:54.130Z,21.96
2017-09-21T11:34:03.417Z,21.96
2017-09-21T11:35:12.394Z,21.94
2017-09-21T11:36:21.665Z,21.96
2017-09-21T11:37:30.634Z,21.98
2017-09-21T11:38:39.619Z,21.98
2017-09-21T11:39:48.915Z,21.94
2017-09-21T11:40:57.587Z,21.96
2017-09-21T11:42:07.354Z,21.99
2017-09-21T11:43:16.638Z,22
2017-09-21T11:44:25.620Z,22.06
2017-09-21T11:45:34.271Z,22
2017-09-21T11:46:42.925Z,21.96
2017-09-21T11:47:52.359Z,22
2017-09-21T11:49:01.327Z,21.94
2017-09-21T11:50:10.944Z,22
2017-09-21T11:51:19.915Z,21.94
2017-09-21T11:52:28.647Z,22.1
2017-09-21T11:53:37.946Z,22
2017-09-21T11:54:47.242Z,22.02
2017-09-21T11:55:56.217Z,22.03
2017-09-21T11:57:05.503Z,22
2017-09-21T11:58:14.788Z,21.98
2017-09-21T11:59:23.912Z,21.98
2017-09-21T12:00:32.571Z,21.98
2017-09-21T12:01:41.858Z,22.09
2017-09-21T12:02:50.836Z,22.1
2017-09-21T12:04:00.135Z,22.03
2017-09-21T12:05:09.432Z,22.06
2017-09-21T12:06:18.097Z,22.06
2017-09-21T12:07:27.078Z,22.05
2017-09-21T12:08:35.747Z,22.1
2017-09-21T12:09:45.043Z,22.06
2017-09-21T12:10:54.121Z,22.03
2017-09-21T12:12:03.160Z,22.05
2017-09-21T12:13:11.823Z,22.06
2017-09-21T12:14:20.796Z,22.05
2017-09-21T12:15:29.775Z,22.06
2017-09-21T12:16:39.080Z,22.02
2017-09-21T12:17:48.698Z,22.12
2017-09-21T12:18:57.676Z,22.15
2017-09-21T12:20:06.970Z,22.15
2017-09-21T12:21:16.253Z,22.14
2017-09-21T12:22:25.214Z,22.15
2017-09-21T12:23:34.205Z,22.2
2017-09-21T12:24:42.872Z,22.17
2017-09-21T12:25:52.171Z,22.18
2017-09-21T12:27:01.159Z,22.12
2017-09-21T12:28:10.776Z,22.15
2017-09-21T12:29:20.074Z,22.21
2017-09-21T12:30:29.362Z,22.1
2017-09-21T12:31:38.337Z,22.12
2017-09-21T12:32:47.327Z,22.24
2017-09-21T12:33:56.146Z,22.18
2017-09-21T12:35:05.450Z,22.22
2017-09-21T12:36:14.455Z,22.2
2017-09-21T12:37:23.120Z,22.2
2017-09-21T12:38:31.780Z,22.21
2017-09-21T12:39:40.850Z,22.21
2017-09-21T12:40:50.145Z,22.17
2017-09-21T12:41:59.113Z,22.15
2017-09-21T12:43:08.101Z,22.21
2017-09-21T12:44:16.753Z,22.18
2017-09-21T12:45:25.561Z,22.18
2017-09-21T12:46:34.539Z,22.22
2017-09-21T12:47:43.209Z,22.2
2017-09-21T12:48:52.492Z,22.15
2017-09-21T12:50:01.778Z,22.22
2017-09-21T12:51:10.908Z,22.22
2017-09-21T12:52:19.895Z,22.21
2017-09-21T12:53:28.560Z,22.22
2017-09-21T12:54:37.531Z,22.2
2017-09-21T12:55:46.191Z,22.2
2017-09-21T12:56:55.973Z,22.24
2017-09-21T12:58:05.251Z,22.22
2017-09-21T12:59:14.243Z,22.24
2017-09-21T13:00:22.920Z,22.2
2017-09-21T13:01:31.894Z,22.15
2017-09-21T13:02:40.707Z,22.25
2017-09-21T13:03:49.686Z,22.14
2017-09-21T13:04:59.284Z,22.17
2017-09-21T13:06:07.947Z,22.17
2017-09-21T13:07:17.226Z,22.2
2017-09-21T13:08:26.189Z,22.2
2017-09-21T13:09:35.185Z,22.22
2017-09-21T13:10:44.177Z,22.21
2017-09-21T13:11:53.147Z,22.24
2017-09-21T13:13:02.445Z,22.14
2017-09-21T13:14:12.167Z,22.24
2017-09-21T13:15:21.445Z,22.18
2017-09-21T13:16:30.739Z,22.15
2017-09-21T13:17:39.724Z,22.24
2017-09-21T13:18:48.708Z,22.21
2017-09-21T13:19:58.332Z,22.21
2017-09-21T13:21:07.670Z,22.2
2017-09-21T13:22:16.658Z,22.21
2017-09-21T13:23:25.315Z,22.2
2017-09-21T13:24:34.610Z,22.22
2017-09-21T13:25:44.038Z,22.18
2017-09-21T13:26:53.111Z,22.22
2017-09-21T13:28:02.410Z,22.25
2017-09-21T13:29:12.032Z,22.21
2017-09-21T13:30:20.685Z,22.17
2017-09-21T13:31:29.808Z,22.18
2017-09-21T13:32:38.780Z,22.21
2017-09-21T13:33:47.768Z,22.22
2017-09-21T13:34:56.429Z,22.18
2017-09-21T13:36:05.711Z,22.2
2017-09-21T13:37:14.782Z,22.18
2017-09-21T13:38:23.757Z,22.21
2017-09-21T13:39:32.436Z,22.15
2017-09-21T13:40:41.725Z,22.24
2017-09-21T13:41:50.702Z,22.21
2017-09-21T13:42:59.861Z,22.17
2017-09-21T13:44:09.132Z,22.25
2017-09-21T13:45:18.097Z,22.24
2017-09-21T13:46:27.699Z,22.21
2017-09-21T13:47:36.669Z,22.14
2017-09-21T13:48:46.099Z,22.21
2017-09-21T13:49:54.761Z,22.17
2017-09-21T13:51:04.365Z,22.18
2017-09-21T13:52:13.387Z,22.24
2017-09-21T13:53:22.043Z,22.22
2017-09-21T13:54:31.006Z,22.21
2017-09-21T13:55:40.605Z,22.3
2017-09-21T13:56:49.279Z,22.25
2017-09-21T13:57:58.579Z,22.2
2017-09-21T13:59:07.561Z,22.28
2017-09-21T14:00:16.841Z,22.2
2017-09-21T14:01:25.822Z,22.21
2017-09-21T14:02:35.810Z,22.22
2017-09-21T14:03:45.096Z,22.22
2017-09-21T14:04:54.416Z,22.25
2017-09-21T14:06:03.378Z,22.2
2017-09-21T14:07:12.054Z,22.27
2017-09-21T14:08:21.342Z,22.3
2017-09-21T14:09:30.641Z,22.27
2017-09-21T14:10:39.640Z,22.22
2017-09-21T14:11:48.301Z,22.21
2017-09-21T14:12:57.297Z,22.21
2017-09-21T14:14:05.951Z,22.2
2017-09-21T14:15:14.637Z,22.25
2017-09-21T14:16:23.925Z,22.2
2017-09-21T14:17:32.885Z,22.24
2017-09-21T14:18:42.493Z,22.21
2017-09-21T14:19:52.431Z,22.3
2017-09-21T14:21:01.455Z,22.24
2017-09-21T14:22:10.103Z,22.25
2017-09-21T14:23:19.400Z,22.27
2017-09-21T14:24:28.371Z,22.27
2017-09-21T14:25:37.679Z,22.28
2017-09-21T14:26:46.987Z,22.24
2017-09-21T14:27:56.005Z,22.21
2017-09-21T14:29:04.673Z,22.22
2017-09-21T14:30:14.294Z,22.25
2017-09-21T14:31:23.249Z,22.22
2017-09-21T14:32:32.536Z,22.22
2017-09-21T14:33:41.854Z,22.22
2017-09-21T14:34:51.464Z,22.27
2017-09-21T14:36:01.107Z,22.21
2017-09-21T14:37:10.394Z,22.27
2017-09-21T14:38:19.695Z,22.25
2017-09-21T14:39:28.372Z,22.22
2017-09-21T14:40:37.338Z,22.2
2017-09-21T14:41:46.036Z,22.25
2017-09-21T14:42:54.705Z,22.27
2017-09-21T14:44:03.364Z,22.25
2017-09-21T14:45:12.340Z,22.36
2017-09-21T14:46:21.793Z,22.22
2017-09-21T14:47:31.101Z,22.22
2017-09-21T14:48:40.388Z,22.28
2017-09-21T14:49:50.005Z,22.25
2017-09-21T14:50:59.048Z,22.28
2017-09-21T14:52:08.357Z,22.28
2017-09-21T14:53:17.381Z,22.25
2017-09-21T14:54:26.040Z,22.24
2017-09-21T14:55:34.706Z,22.27